createdAt,value
2017-09-03T00:01:37.362Z,14.60
2017-09-03T00:04:04.876Z,14.60
2017-09-03T00:06:32.364Z,14.70
2017-09-03T00:08:59.886Z,14.60
2017-09-03T00:11:27.381Z,14.70
2017-09-03T00:13:54.883Z,14.70
2017-09-03T00:16:22.366Z,14.70
2017-09-03T00:18:49.872Z,14.60
2017-09-03T00:21:17.412Z,14.60
2017-09-03T00:23:44.915Z,14.70
2017-09-03T00:26:12.453Z,14.60
2017-09-03T00:28:39.956Z,14.50
2017-09-03T00:31:07.445Z,14.50
2017-09-03T00:33:34.952Z,14.50
2017-09-03T00:36:03.158Z,14.60
2017-09-03T00:38:30.675Z,14.60
2017-09-03T00:40:58.181Z,14.60
2017-09-03T00:43:25.720Z,14.50
2017-09-03T00:45:53.219Z,14.50
2017-09-03T00:48:20.713Z,14.50
2017-09-03T00:50:49.028Z,14.30
2017-09-03T00:53:16.654Z,14.30
2017-09-03T00:55:44.177Z,14.40
2017-09-03T00:58:11.666Z,14.40
2017-09-03T01:00:39.360Z,14.40
2017-09-03T01:03:06.903Z,14.40
2017-09-03T01:05:34.404Z,14.40
2017-09-03T01:08:01.901Z,14.40
2017-09-03T01:10:29.405Z,14.30
2017-09-03T01:12:56.914Z,14.30
2017-09-03T01:15:24.396Z,14.30
2017-09-03T01:17:51.943Z,14.30
2017-09-03T01:20:19.468Z,14.30
2017-09-03T01:22:46.992Z,14.30
2017-09-03T01:25:14.524Z,14.30
2017-09-03T01:27:42.013Z,14.30
2017-09-03T01:30:09.500Z,14.30
2017-09-03T01:32:36.998Z,14.30
2017-09-03T01:35:04.523Z,14.30
2017-09-03T01:37:32.034Z,14.20
2017-09-03T01:39:59.507Z,14.20
2017-09-03T01:42:27.020Z,14.20
2017-09-03T01:44:54.553Z,14.20
2017-09-03T01:47:22.079Z,14.10
2017-09-03T01:49:49.569Z,14.10
2017-09-03T01:52:17.109Z,14.10
2017-09-03T01:54:44.597Z,14.10
2017-09-03T01:57:12.146Z,14.10
2017-09-03T01:59:39.658Z,14.10
2017-09-03T02:02:07.136Z,14.10
2017-09-03T02:04:34.636Z,14.00
2017-09-03T02:07:02.243Z,14.00
2017-09-03T02:09:29.753Z,14.00
2017-09-03T02:11:57.333Z,14.10
2017-09-03T02:14:24.830Z,14.00
2017-09-03T02:16:52.386Z,14.00
2017-09-03T02:19:19.880Z,13.80
2017-09-03T02:21:47.605Z,13.80
2017-09-03T02:24:15.105Z,13.80
2017-09-03T02:26:42.591Z,13.90
2017-09-03T02:29:10.081Z,13.90
2017-09-03T02:31:37.566Z,13.90
2017-09-03T02:34:05.066Z,13.80
2017-09-03T02:36:32.592Z,13.80
2017-09-03T02:39:00.107Z,13.80
2017-09-03T02:41:27.597Z,13.80
2017-09-03T02:43:55.093Z,13.90
2017-09-03T02:46:22.587Z,13.90
2017-09-03T02:48:50.087Z,13.90
2017-09-03T02:51:17.623Z,13.90
2017-09-03T02:53:45.140Z,13.80
2017-09-03T02:56:12.636Z,13.80
2017-09-03T02:58:40.149Z,13.80
2017-09-03T03:01:07.664Z,13.80
2017-09-03T03:03:35.155Z,13.80
2017-09-03T03:06:02.712Z,13.80
2017-09-03T03:08:30.231Z,13.70
2017-09-03T03:10:57.736Z,13.70
2017-09-03T03:13:25.229Z,13.60
2017-09-03T03:15:52.754Z,13.60
2017-09-03T03:18:20.256Z,13.70
2017-09-03T03:20:47.757Z,13.70
2017-09-03T03:23:15.275Z,13.70
2017-09-03T03:25:42.787Z,13.70
2017-09-03T03:28:10.280Z,13.60
2017-09-03T03:30:37.787Z,13.50
2017-09-03T03:33:05.307Z,13.50
2017-09-03T03:35:32.823Z,13.60
2017-09-03T03:38:00.353Z,13.50
2017-09-03T03:40:27.852Z,13.50
2017-09-03T03:42:55.368Z,13.60
2017-09-03T03:45:23.081Z,13.50
2017-09-03T03:47:50.589Z,13.50
2017-09-03T03:50:18.102Z,13.50
2017-09-03T03:52:45.603Z,13.50
2017-09-03T03:55:13.144Z,13.50
2017-09-03T03:57:40.652Z,13.50
2017-09-03T04:00:08.200Z,13.40
2017-09-03T04:02:35.680Z,13.40
2017-09-03T04:05:03.203Z,13.40
2017-09-03T04:07:30.717Z,13.40
2017-09-03T04:09:58.236Z,13.30
2017-09-03T04:12:25.729Z,13.30
2017-09-03T04:14:53.245Z,13.30
2017-09-03T04:17:20.739Z,13.30
2017-09-03T04:19:48.221Z,13.30
2017-09-03T04:22:15.748Z,13.30
2017-09-03T04:24:43.363Z,13.30
2017-09-03T04:27:10.872Z,13.30
2017-09-03T04:29:39.656Z,13.30
2017-09-03T04:32:07.166Z,13.30
2017-09-03T04:34:34.689Z,13.20
2017-09-03T04:37:02.228Z,13.20
2017-09-03T04:39:29.724Z,13.10
2017-09-03T04:41:57.232Z,13.20
2017-09-03T04:44:24.926Z,13.30
2017-09-03T04:46:52.422Z,13.30
2017-09-03T04:49:19.917Z,13.30
2017-09-03T04:51:47.448Z,13.30
2017-09-03T04:54:14.949Z,13.30
2017-09-03T04:56:42.508Z,13.20
2017-09-03T04:59:10.058Z,13.20
2017-09-03T05:01:37.557Z,13.20
2017-09-03T05:04:05.052Z,13.20
2017-09-03T05:06:32.559Z,13.30
2017-09-03T05:09:00.086Z,13.30
2017-09-03T05:11:27.588Z,13.40
2017-09-03T05:13:55.102Z,13.40
2017-09-03T05:16:22.894Z,13.50
2017-09-03T05:18:50.393Z,13.40
2017-09-03T05:21:17.883Z,13.40
2017-09-03T05:23:45.390Z,13.40
2017-09-03T05:26:12.902Z,13.40
2017-09-03T05:28:40.428Z,13.50
2017-09-03T05:31:07.977Z,13.50
2017-09-03T05:33:35.488Z,13.60
2017-09-03T05:36:02.969Z,13.60
2017-09-03T05:38:30.474Z,13.60
2017-09-03T05:40:57.994Z,13.70
2017-09-03T05:43:25.485Z,13.70
2017-09-03T05:45:53.012Z,13.70
2017-09-03T05:48:20.521Z,13.70
2017-09-03T05:50:48.052Z,13.80
2017-09-03T05:53:15.558Z,13.80
2017-09-03T05:55:43.091Z,13.80
2017-09-03T05:58:10.685Z,13.90
2017-09-03T06:00:38.207Z,14.00
2017-09-03T06:03:05.721Z,14.00
2017-09-03T06:05:33.236Z,14.00
2017-09-03T06:08:02.325Z,14.00
2017-09-03T06:10:31.363Z,14.10
2017-09-03T06:12:59.139Z,14.10
2017-09-03T06:15:26.672Z,14.10
2017-09-03T06:17:54.174Z,14.10
2017-09-03T06:20:21.681Z,14.20
2017-09-03T06:22:49.255Z,14.20
2017-09-03T06:25:16.746Z,14.40
2017-09-03T06:27:44.725Z,14.50
2017-09-03T06:30:12.269Z,14.50
2017-09-03T06:32:39.775Z,14.60
2017-09-03T06:35:08.785Z,14.60
2017-09-03T06:37:36.305Z,14.70
2017-09-03T06:40:03.805Z,14.70
2017-09-03T06:42:31.317Z,14.80
2017-09-03T06:44:58.798Z,14.80
2017-09-03T06:47:26.392Z,14.90
2017-09-03T06:49:53.958Z,15.00
2017-09-03T06:52:21.494Z,15.00
2017-09-03T06:54:49.005Z,15.00
2017-09-03T06:57:16.597Z,15.00
2017-09-03T06:59:44.116Z,15.10
2017-09-03T07:02:11.652Z,15.00
2017-09-03T07:04:39.159Z,15.10
2017-09-03T07:07:06.657Z,15.10
2017-09-03T07:09:34.183Z,15.20
2017-09-03T07:12:01.660Z,15.30
2017-09-03T07:14:29.153Z,15.50
2017-09-03T07:16:56.841Z,15.60
2017-09-03T07:19:24.352Z,15.70
2017-09-03T07:21:51.882Z,15.80
2017-09-03T07:24:19.401Z,15.90
2017-09-03T07:26:47.064Z,16.00
2017-09-03T07:29:14.592Z,16.10
2017-09-03T07:31:42.109Z,16.10
2017-09-03T07:34:09.583Z,16.10
2017-09-03T07:36:37.169Z,16.10
2017-09-03T07:39:04.653Z,16.10
2017-09-03T07:41:32.150Z,16.10
2017-09-03T07:43:59.652Z,16.20
2017-09-03T07:46:27.143Z,16.20
2017-09-03T07:48:54.703Z,16.30
2017-09-03T07:51:22.229Z,16.30
2017-09-03T07:53:49.762Z,16.30
2017-09-03T07:56:17.280Z,16.30
2017-09-03T07:58:44.819Z,16.30
2017-09-03T08:01:12.349Z,16.20
2017-09-03T08:03:39.831Z,16.30
2017-09-03T08:06:07.317Z,16.50
2017-09-03T08:08:34.882Z,16.40
2017-09-03T08:11:02.369Z,16.50
2017-09-03T08:13:29.964Z,16.60
2017-09-03T08:15:57.451Z,16.60
2017-09-03T08:18:25.004Z,16.60
2017-09-03T08:20:52.532Z,16.50
2017-09-03T08:23:20.037Z,16.60
2017-09-03T08:25:47.558Z,16.70
2017-09-03T08:28:15.069Z,16.70
2017-09-03T08:30:42.559Z,16.70
2017-09-03T08:33:10.405Z,16.70
2017-09-03T08:35:37.941Z,16.70
2017-09-03T08:38:05.435Z,16.70
2017-09-03T08:40:32.942Z,16.80
2017-09-03T08:43:00.426Z,16.80
2017-09-03T08:45:28.123Z,16.90
2017-09-03T08:47:56.944Z,16.90
2017-09-03T08:50:24.457Z,17.10
2017-09-03T08:52:51.952Z,17.20
2017-09-03T08:55:19.482Z,17.30
2017-09-03T08:57:47.031Z,17.40
2017-09-03T09:00:14.573Z,17.50
2017-09-03T09:02:42.067Z,17.60
2017-09-03T09:05:09.618Z,17.60
2017-09-03T09:07:37.132Z,17.80
2017-09-03T09:10:04.647Z,18.00
2017-09-03T09:12:34.081Z,18.20
2017-09-03T09:15:01.578Z,18.20
2017-09-03T09:17:29.096Z,18.20
2017-09-03T09:19:56.603Z,18.20
2017-09-03T09:22:24.096Z,18.50
2017-09-03T09:24:51.592Z,18.80
2017-09-03T09:27:19.119Z,19.10
2017-09-03T09:29:46.619Z,19.30
2017-09-03T09:32:14.117Z,19.30
2017-09-03T09:34:41.618Z,19.20
2017-09-03T09:37:09.128Z,19.30
2017-09-03T09:39:36.621Z,19.30
2017-09-03T09:42:04.164Z,19.40
2017-09-03T09:44:31.729Z,19.40
2017-09-03T09:46:59.239Z,19.60
2017-09-03T09:49:26.727Z,19.60
2017-09-03T09:51:54.258Z,19.60
2017-09-03T09:54:21.842Z,19.90
2017-09-03T09:56:49.362Z,20.00
2017-09-03T09:59:16.882Z,20.30
2017-09-03T10:01:44.425Z,20.40
2017-09-03T10:04:12.092Z,20.60
2017-09-03T10:06:39.598Z,20.80
2017-09-03T10:09:07.125Z,21.00
2017-09-03T10:11:34.642Z,21.00
2017-09-03T10:14:02.147Z,21.10
2017-09-03T10:16:29.708Z,21.50
2017-09-03T10:18:57.237Z,21.40
2017-09-03T10:21:24.768Z,21.60
2017-09-03T10:23:52.250Z,21.80
2017-09-03T10:26:19.779Z,21.80
2017-09-03T10:28:47.385Z,21.70
2017-09-03T10:31:14.922Z,21.70
2017-09-03T10:33:42.407Z,21.80
2017-09-03T10:36:10.075Z,21.70
2017-09-03T10:38:37.579Z,21.70
2017-09-03T10:41:05.117Z,22.30
2017-09-03T10:43:32.648Z,22.70
2017-09-03T10:46:00.157Z,23.00
2017-09-03T10:48:27.652Z,22.90
2017-09-03T10:50:55.157Z,23.00
2017-09-03T10:53:22.664Z,22.80
2017-09-03T10:55:50.159Z,22.10
2017-09-03T10:58:17.669Z,21.40
2017-09-03T11:00:45.160Z,20.80
2017-09-03T11:03:12.671Z,20.10
2017-09-03T11:05:40.231Z,19.80
2017-09-03T11:08:07.773Z,19.60
2017-09-03T11:10:35.312Z,19.30
2017-09-03T11:13:02.802Z,19.30
2017-09-03T11:15:30.311Z,19.60
2017-09-03T11:17:57.822Z,20.80
2017-09-03T11:20:25.328Z,22.10
2017-09-03T11:22:52.852Z,23.20
2017-09-03T11:25:20.394Z,24.40
2017-09-03T11:27:47.897Z,25.60
2017-09-03T11:30:15.441Z,26.70
2017-09-03T11:32:42.947Z,27.30
2017-09-03T11:35:10.506Z,27.30
2017-09-03T11:37:38.033Z,27.60
2017-09-03T11:40:05.600Z,28.00
2017-09-03T11:42:33.127Z,29.40
2017-09-03T11:45:00.614Z,29.50
2017-09-03T11:47:28.237Z,29.00
2017-09-03T11:49:55.742Z,27.30
2017-09-03T11:52:23.267Z,26.80
2017-09-03T11:54:50.790Z,26.00
2017-09-03T11:57:18.281Z,25.20
2017-09-03T11:59:45.775Z,24.30
2017-09-03T12:02:13.293Z,24.20
2017-09-03T12:04:40.807Z,25.40
2017-09-03T12:07:08.381Z,26.70
2017-09-03T12:09:35.880Z,28.20
2017-09-03T12:12:03.486Z,29.60
2017-09-03T12:14:31.010Z,28.40
2017-09-03T12:16:58.519Z,27.10
2017-09-03T12:19:26.006Z,25.60
2017-09-03T12:21:53.541Z,25.50
2017-09-03T12:24:21.055Z,25.40
2017-09-03T12:26:49.139Z,24.80
2017-09-03T12:29:16.680Z,24.50
2017-09-03T12:31:44.186Z,24.30
2017-09-03T12:34:11.713Z,23.60
2017-09-03T12:36:39.228Z,23.00
2017-09-03T12:39:06.750Z,22.10
2017-09-03T12:41:34.288Z,22.10
2017-09-03T12:44:01.790Z,21.50
2017-09-03T12:46:29.298Z,21.40
2017-09-03T12:48:56.798Z,21.50
2017-09-03T12:51:24.304Z,21.30
2017-09-03T12:53:51.815Z,21.10
2017-09-03T12:56:19.321Z,20.90
2017-09-03T12:58:46.826Z,20.80
2017-09-03T13:01:14.315Z,20.90
2017-09-03T13:03:42.035Z,20.90
2017-09-03T13:06:09.572Z,21.00
2017-09-03T13:08:37.102Z,21.00
2017-09-03T13:11:04.758Z,21.00
2017-09-03T13:13:32.265Z,21.00
2017-09-03T13:15:59.905Z,20.40
2017-09-03T13:18:27.418Z,20.40
2017-09-03T13:20:54.924Z,20.50
2017-09-03T13:23:22.392Z,20.60
2017-09-03T13:25:49.946Z,20.60
2017-09-03T13:28:17.454Z,20.40
2017-09-03T13:30:44.949Z,20.70
2017-09-03T13:33:12.455Z,21.40
2017-09-03T13:35:39.961Z,22.50
2017-09-03T13:38:07.592Z,23.00
2017-09-03T13:40:35.153Z,23.70
2017-09-03T13:43:02.651Z,24.00
2017-09-03T13:45:30.168Z,24.30
2017-09-03T13:47:57.687Z,24.20
2017-09-03T13:50:25.216Z,23.90
2017-09-03T13:52:53.039Z,23.90
2017-09-03T13:55:20.541Z,23.90
2017-09-03T13:57:48.078Z,23.80
2017-09-03T14:00:15.582Z,23.90
2017-09-03T14:02:43.118Z,23.90
2017-09-03T14:05:10.751Z,23.70
2017-09-03T14:07:38.256Z,23.40
2017-09-03T14:10:05.774Z,23.00
2017-09-03T14:12:33.316Z,22.80
2017-09-03T14:15:00.830Z,22.80
2017-09-03T14:17:28.336Z,23.00
2017-09-03T14:19:55.951Z,22.60
2017-09-03T14:22:23.457Z,22.40
2017-09-03T14:24:50.975Z,22.60
2017-09-03T14:27:18.525Z,22.70
2017-09-03T14:29:46.026Z,22.40
2017-09-03T14:32:13.559Z,22.10
2017-09-03T14:34:41.075Z,22.20
2017-09-03T14:37:08.602Z,22.20
2017-09-03T14:39:36.132Z,22.40
2017-09-03T14:42:03.629Z,22.40
2017-09-03T14:44:31.117Z,22.40
2017-09-03T14:46:58.686Z,22.20
2017-09-03T14:49:26.242Z,22.30
2017-09-03T14:51:53.767Z,22.10
2017-09-03T14:54:21.296Z,21.80
2017-09-03T14:56:48.818Z,21.80
2017-09-03T14:59:16.355Z,22.00
2017-09-03T15:01:43.874Z,21.90
2017-09-03T15:04:11.430Z,21.80
2017-09-03T15:06:38.940Z,21.90
2017-09-03T15:09:06.581Z,22.10
2017-09-03T15:11:34.090Z,22.00
2017-09-03T15:14:01.620Z,21.90
2017-09-03T15:16:29.140Z,21.50
2017-09-03T15:18:56.663Z,21.50
2017-09-03T15:21:24.200Z,21.40
2017-09-03T15:23:51.692Z,21.50
2017-09-03T15:26:19.225Z,21.50
2017-09-03T15:28:46.748Z,21.40
2017-09-03T15:31:14.276Z,21.20
2017-09-03T15:33:41.786Z,21.10
2017-09-03T15:36:09.335Z,21.40
2017-09-03T15:38:36.835Z,21.40
2017-09-03T15:41:04.354Z,21.50
2017-09-03T15:43:33.095Z,21.60
2017-09-03T15:46:00.614Z,21.60
2017-09-03T15:48:28.106Z,21.40
2017-09-03T15:50:55.606Z,21.20
2017-09-03T15:53:29.361Z,21.20
2017-09-03T15:55:56.892Z,21.30
2017-09-03T15:58:24.476Z,21.30
2017-09-03T16:00:52.012Z,21.20
2017-09-03T16:03:19.544Z,21.10
2017-09-03T16:05:47.052Z,20.90
2017-09-03T16:08:14.583Z,20.90
2017-09-03T16:10:42.091Z,21.00
2017-09-03T16:13:09.590Z,21.00
2017-09-03T16:15:37.129Z,21.00
2017-09-03T16:18:04.718Z,20.90
2017-09-03T16:20:32.226Z,20.90
2017-09-03T16:22:59.734Z,20.50
2017-09-03T16:25:27.259Z,20.00
2017-09-03T16:27:54.925Z,19.90
2017-09-03T16:30:22.458Z,20.00
2017-09-03T16:32:49.962Z,20.00
2017-09-03T16:35:17.479Z,19.90
2017-09-03T16:37:44.994Z,20.00
2017-09-03T16:40:12.533Z,20.00
2017-09-03T16:42:40.037Z,19.90
2017-09-03T16:45:07.525Z,19.80
2017-09-03T16:47:35.026Z,19.70
2017-09-03T16:50:02.855Z,19.40
2017-09-03T16:52:30.394Z,19.00
2017-09-03T16:54:57.924Z,18.70
2017-09-03T16:57:25.441Z,18.60
2017-09-03T16:59:52.996Z,18.50
2017-09-03T17:02:20.505Z,18.30
2017-09-03T17:04:48.258Z,18.10
2017-09-03T17:07:15.767Z,18.10
2017-09-03T17:09:43.290Z,18.10
2017-09-03T17:12:11.014Z,18.00
2017-09-03T17:14:38.522Z,18.00
2017-09-03T17:17:06.018Z,18.10
2017-09-03T17:19:33.547Z,18.10
2017-09-03T17:22:15.954Z,18.10
2017-09-03T17:24:43.452Z,18.20
2017-09-03T17:27:10.957Z,18.20
2017-09-03T17:29:38.465Z,18.30
2017-09-03T17:32:05.981Z,18.30
2017-09-03T17:34:35.378Z,18.40
2017-09-03T17:37:03.427Z,18.40
2017-09-03T17:42:09.111Z,18.50
2017-09-03T17:44:36.629Z,18.50
2017-09-03T17:47:22.835Z,18.40
2017-09-03T17:49:51.109Z,18.30
2017-09-03T17:52:19.537Z,18.30
2017-09-03T17:54:47.928Z,18.20
2017-09-03T17:57:16.003Z,18.20
2017-09-03T17:59:46.030Z,18.20
2017-09-03T18:02:13.600Z,18.20
2017-09-03T18:04:56.038Z,18.10
2017-09-03T18:07:23.544Z,18.10
2017-09-03T18:09:51.179Z,18.00
2017-09-03T18:12:19.221Z,18.00
2017-09-03T18:14:46.724Z,18.00
2017-09-03T18:17:15.369Z,18.00
2017-09-03T18:19:44.214Z,18.00
2017-09-03T18:22:11.812Z,18.10
2017-09-03T18:24:39.382Z,18.10
2017-09-03T18:27:08.014Z,18.00
2017-09-03T18:29:50.442Z,18.10
2017-09-03T18:32:17.938Z,18.10
2017-09-03T18:34:45.440Z,17.80
2017-09-03T18:37:31.751Z,17.80
2017-09-03T18:40:03.129Z,17.80
2017-09-03T18:42:31.330Z,17.90
2017-09-03T18:44:59.493Z,17.90
2017-09-03T18:47:27.695Z,17.80
2017-09-03T18:50:01.030Z,17.80
2017-09-03T18:52:38.887Z,17.70
2017-09-03T18:55:07.147Z,17.60
2017-09-03T18:57:49.539Z,17.70
2017-09-03T19:00:21.639Z,17.60
2017-09-03T19:02:50.829Z,17.60
2017-09-03T19:05:28.399Z,17.60
2017-09-03T19:07:55.915Z,17.50
2017-09-03T19:10:33.090Z,17.40
2017-09-03T19:13:00.631Z,17.40
2017-09-03T19:15:28.131Z,17.30
2017-09-03T19:17:55.650Z,17.30
2017-09-03T19:20:23.176Z,17.20
2017-09-03T19:22:50.711Z,17.30
2017-09-03T19:25:18.269Z,17.20
2017-09-03T19:27:45.775Z,17.20
2017-09-03T19:30:13.320Z,17.20
2017-09-03T19:32:40.896Z,17.20
2017-09-03T19:35:08.431Z,17.20
2017-09-03T19:37:36.747Z,17.10
2017-09-03T19:40:04.279Z,17.10
2017-09-03T19:42:31.976Z,17.10
2017-09-03T19:44:59.494Z,17.00
2017-09-03T19:47:27.039Z,17.00
2017-09-03T19:49:54.549Z,16.90
2017-09-03T19:52:22.074Z,16.90
2017-09-03T19:54:49.634Z,16.90
2017-09-03T19:57:17.167Z,16.90
2017-09-03T19:59:44.693Z,16.90
2017-09-03T20:02:12.192Z,16.80
2017-09-03T20:04:39.780Z,16.70
2017-09-03T20:07:07.349Z,16.70
2017-09-03T20:09:34.871Z,16.70
2017-09-03T20:12:02.387Z,16.60
2017-09-03T20:14:30.016Z,16.60
2017-09-03T20:16:57.542Z,16.60
2017-09-03T20:19:25.055Z,16.50
2017-09-03T20:21:52.595Z,16.50
2017-09-03T20:24:20.135Z,16.40
2017-09-03T20:26:47.892Z,16.40
2017-09-03T20:29:15.415Z,16.40
2017-09-03T20:31:42.930Z,16.40
2017-09-03T20:34:10.458Z,16.40
2017-09-03T20:36:37.967Z,16.40
2017-09-03T20:39:05.491Z,16.30
2017-09-03T20:41:33.087Z,16.30
2017-09-03T20:44:00.618Z,16.30
2017-09-03T20:46:28.165Z,16.20
2017-09-03T20:48:55.654Z,16.10
2017-09-03T20:51:23.215Z,16.10
2017-09-03T20:53:50.751Z,16.10
2017-09-03T20:56:18.311Z,16.00
2017-09-03T20:58:45.833Z,16.00
2017-09-03T21:01:13.344Z,16.00
2017-09-03T21:03:40.896Z,15.90
2017-09-03T21:06:08.410Z,15.80
2017-09-03T21:08:35.919Z,15.80
2017-09-03T21:11:03.410Z,15.80
2017-09-03T21:13:30.913Z,15.70
2017-09-03T21:15:58.448Z,15.70
2017-09-03T21:18:25.938Z,15.70
2017-09-03T21:20:53.457Z,15.50
2017-09-03T21:23:21.014Z,15.60
2017-09-03T21:25:48.509Z,15.50
2017-09-03T21:28:16.014Z,15.60
2017-09-03T21:30:43.520Z,15.60
2017-09-03T21:33:11.038Z,15.70
2017-09-03T21:35:38.553Z,15.60
2017-09-03T21:38:06.052Z,15.60
2017-09-03T21:40:33.569Z,15.60
2017-09-03T21:43:01.070Z,15.60
2017-09-03T21:45:28.570Z,15.70
2017-09-03T21:47:56.091Z,15.60
2017-09-03T21:50:23.603Z,15.50
2017-09-03T21:52:51.133Z,15.40
2017-09-03T21:55:18.642Z,15.50
2017-09-03T21:57:46.208Z,15.40
2017-09-03T22:00:14.370Z,15.30
2017-09-03T22:02:41.883Z,15.30
2017-09-03T22:05:09.387Z,15.40
2017-09-03T22:07:36.886Z,15.30
2017-09-03T22:10:04.387Z,15.40
2017-09-03T22:12:31.888Z,15.30
2017-09-03T22:14:59.404Z,15.40
2017-09-03T22:17:26.896Z,15.40
2017-09-03T22:19:54.505Z,15.40
2017-09-03T22:22:22.023Z,15.40
2017-09-03T22:24:49.511Z,15.40
2017-09-03T22:27:17.012Z,15.40
2017-09-03T22:29:44.538Z,15.40
2017-09-03T22:32:12.045Z,15.40
2017-09-03T22:34:39.552Z,15.30
2017-09-03T22:37:07.157Z,15.30
2017-09-03T22:39:34.652Z,15.30
2017-09-03T22:42:02.159Z,15.30
2017-09-03T22:44:29.681Z,15.30
2017-09-03T22:46:57.168Z,15.30
2017-09-03T22:49:24.667Z,15.30
2017-09-03T22:51:52.163Z,15.30
2017-09-03T22:54:19.663Z,15.30
2017-09-03T22:56:47.166Z,15.20
2017-09-03T22:59:14.678Z,15.20
2017-09-03T23:01:42.171Z,15.20
2017-09-03T23:04:09.683Z,15.10
2017-09-03T23:06:37.214Z,15.00
2017-09-03T23:09:04.714Z,15.00
2017-09-03T23:11:32.229Z,15.00
2017-09-03T23:13:59.726Z,15.00
2017-09-03T23:16:27.227Z,14.90
2017-09-03T23:18:54.745Z,14.90
2017-09-03T23:21:22.297Z,15.00
2017-09-03T23:23:49.791Z,15.00
2017-09-03T23:26:17.311Z,15.00
2017-09-03T23:28:44.817Z,15.00
2017-09-03T23:31:12.323Z,14.90
2017-09-03T23:33:39.846Z,15.00
2017-09-03T23:36:07.315Z,15.00
2017-09-03T23:38:34.804Z,14.90
2017-09-03T23:41:02.315Z,14.90
2017-09-03T23:43:29.794Z,14.90
2017-09-03T23:45:57.289Z,14.90
2017-09-03T23:48:24.791Z,14.90
2017-09-03T23:50:52.298Z,14.90
2017-09-03T23:53:19.780Z,14.80
2017-09-03T23:55:47.272Z,14.80
2017-09-03T23:58:14.767Z,14.80
